John H. — WAC6768 — position and weather

sailwx.info

Track history (hours):
 
Tides and Currents Weather Stations Pressure Air Temp Water Temp Dewpoint Dewpoint Depression Visibility Wind Speed Wind Dir Waves Ship Positions

John H.

Owner: CROSS SOUND FERRY SERVICE INC, NEW LOUDON, CT. More information available from US FCC via Universal Licensing System and Coast Guard Vessel Documentation Center.

Last reported at 2016-Jul-25 10:20 UTC. Time now 2016-Jul-25 14:08 UTC.
Position N 41°09' W 072°14'.

Length 70 m.

Type: Passenger vessel. MMSI: 366934890.

Date/timePositionNaut miles runAvg speedWind from/ knotsBaromVisibWave heightAir tempDewpointWater temp
2016-Jul-25 10:20N 41°09' W 072°14'0 0.0
2016-Jul-25 02:16N 41°09' W 072°14'811.1
2016-Jul-25 01:33N 41°15' W 072°08'2 0.9
2016-Jul-24 23:33N 41°14' W 072°09'6 5.0
2016-Jul-24 22:20N 41°09' W 072°14'4 1.4
2016-Jul-24 19:27N 41°12' W 072°11'1 0.7
2016-Jul-24 18:03N 41°12' W 072°12'3 0.5
2016-Jul-24 11:32N 41°14' W 072°09'6 0.5
2016-Jul-24 00:16N 41°09' W 072°14'811.3
2016-Jul-23 23:33N 41°16' W 072°08'2 1.0
2016-Jul-23 21:33N 41°14' W 072°09'5 3.7
2016-Jul-23 20:13N 41°11' W 072°14'811.6
2016-Jul-23 19:33N 41°17' W 072°07'4 2.3
2016-Jul-23 17:34N 41°13' W 072°10'4 2.6
2016-Jul-23 16:09N 41°10' W 072°13'4 0.3
2016-Jul-23 01:33N 41°13' W 072°10'4 3.3
2016-Jul-23 00:19N 41°10' W 072°13'911.3
2016-Jul-22 23:32N 41°17' W 072°06'  
Track history (hours):
 
Tides and Currents Weather Stations Pressure Air Temp Water Temp Dewpoint Dewpoint Depression Visibility Wind Speed Wind Dir Waves Ship Positions

John H.

Owner: CROSS SOUND FERRY SERVICE INC, NEW LOUDON, CT. More information available from US FCC via Universal Licensing System and Coast Guard Vessel Documentation Center.

Last reported at 2016-Jul-25 10:20 UTC. Time now 2016-Jul-25 14:08 UTC.
Position N 41°09' W 072°14'.

Length 70 m.

Type: Passenger vessel. MMSI: 366934890.

Date/timePositionNaut miles runAvg speedWind from/ knotsBaromVisibWave heightAir tempDewpointWater temp
2016-Jul-25 10:20N 41°09' W 072°14'0 0.0
2016-Jul-25 02:16N 41°09' W 072°14'811.1
2016-Jul-25 01:33N 41°15' W 072°08'2 0.9
2016-Jul-24 23:33N 41°14' W 072°09'6 5.0
2016-Jul-24 22:20N 41°09' W 072°14'4 1.4
2016-Jul-24 19:27N 41°12' W 072°11'1 0.7
2016-Jul-24 18:03N 41°12' W 072°12'3 0.5
2016-Jul-24 11:32N 41°14' W 072°09'6 0.5
2016-Jul-24 00:16N 41°09' W 072°14'811.3
2016-Jul-23 23:33N 41°16' W 072°08'2 1.0
2016-Jul-23 21:33N 41°14' W 072°09'5 3.7
2016-Jul-23 20:13N 41°11' W 072°14'811.6
2016-Jul-23 19:33N 41°17' W 072°07'4 2.3
2016-Jul-23 17:34N 41°13' W 072°10'4 2.6
2016-Jul-23 16:09N 41°10' W 072°13'4 0.3
2016-Jul-23 01:33N 41°13' W 072°10'4 3.3
2016-Jul-23 00:19N 41°10' W 072°13'911.3
2016-Jul-22 23:32N 41°17' W 072°06'  

Dump ship's entire track history